sensor_id;sensor_type;location;lat;lon;timestamp;temperature;humidity
11426;DHT22;5769;47.998;7.788;2023-03-02T00:01:02;18.60;60.90
11426;DHT22;5769;47.998;7.788;2023-03-02T00:03:31;18.70;61.00
11426;DHT22;5769;47.998;7.788;2023-03-02T00:05:58;18.60;61.00
11426;DHT22;5769;47.998;7.788;2023-03-02T00:08:26;18.60;61.10
11426;DHT22;5769;47.998;7.788;2023-03-02T00:10:54;18.70;61.10
11426;DHT22;5769;47.998;7.788;2023-03-02T00:13:21;18.60;61.10
11426;DHT22;5769;47.998;7.788;2023-03-02T00:15:48;18.60;61.10
11426;DHT22;5769;47.998;7.788;2023-03-02T00:18:16;18.60;61.90
11426;DHT22;5769;47.998;7.788;2023-03-02T00:20:44;18.60;61.20
11426;DHT22;5769;47.998;7.788;2023-03-02T00:23:11;18.60;61.10
11426;DHT22;5769;47.998;7.788;2023-03-02T00:25:38;18.60;61.10
11426;DHT22;5769;47.998;7.788;2023-03-02T00:28:05;18.60;61.00
11426;DHT22;5769;47.998;7.788;2023-03-02T00:30:31;18.60;61.10
11426;DHT22;5769;47.998;7.788;2023-03-02T00:32:58;18.60;61.00
11426;DHT22;5769;47.998;7.788;2023-03-02T00:35:26;18.60;61.10
11426;DHT22;5769;47.998;7.788;2023-03-02T00:37:53;18.60;61.00
11426;DHT22;5769;47.998;7.788;2023-03-02T00:40:20;18.60;60.90
11426;DHT22;5769;47.998;7.788;2023-03-02T00:42:46;18.60;60.80
11426;DHT22;5769;47.998;7.788;2023-03-02T00:45:13;18.60;61.10
11426;DHT22;5769;47.998;7.788;2023-03-02T00:47:40;18.70;61.20
11426;DHT22;5769;47.998;7.788;2023-03-02T00:50:08;18.60;61.10
11426;DHT22;5769;47.998;7.788;2023-03-02T00:52:36;18.70;61.20
11426;DHT22;5769;47.998;7.788;2023-03-02T00:55:03;18.60;61.10
11426;DHT22;5769;47.998;7.788;2023-03-02T00:57:30;18.60;61.10
11426;DHT22;5769;47.998;7.788;2023-03-02T00:59:57;18.60;61.10
11426;DHT22;5769;47.998;7.788;2023-03-02T01:02:24;18.60;61.20
11426;DHT22;5769;47.998;7.788;2023-03-02T01:04:51;18.60;61.00
11426;DHT22;5769;47.998;7.788;2023-03-02T01:07:19;18.70;61.00
11426;DHT22;5769;47.998;7.788;2023-03-02T01:09:47;18.70;61.00
11426;DHT22;5769;47.998;7.788;2023-03-02T01:12:14;18.60;61.10
11426;DHT22;5769;47.998;7.788;2023-03-02T01:14:43;18.70;61.20
11426;DHT22;5769;47.998;7.788;2023-03-02T01:17:10;18.60;61.10
11426;DHT22;5769;47.998;7.788;2023-03-02T01:19:37;18.60;61.10
11426;DHT22;5769;47.998;7.788;2023-03-02T01:22:04;18.60;61.00
11426;DHT22;5769;47.998;7.788;2023-03-02T01:24:31;18.60;61.00
11426;DHT22;5769;47.998;7.788;2023-03-02T01:26:59;18.60;60.90
11426;DHT22;5769;47.998;7.788;2023-03-02T01:29:26;18.50;60.80
11426;DHT22;5769;47.998;7.788;2023-03-02T01:31:53;18.60;60.90
11426;DHT22;5769;47.998;7.788;2023-03-02T01:34:20;18.60;60.90
11426;DHT22;5769;47.998;7.788;2023-03-02T01:36:46;18.60;60.80
11426;DHT22;5769;47.998;7.788;2023-03-02T01:39:13;18.60;60.80
11426;DHT22;5769;47.998;7.788;2023-03-02T01:41:40;18.60;60.80
11426;DHT22;5769;47.998;7.788;2023-03-02T01:44:33;18.60;60.70
11426;DHT22;5769;47.998;7.788;2023-03-02T01:47:00;18.60;60.80
11426;DHT22;5769;47.998;7.788;2023-03-02T01:49:28;18.60;60.80
11426;DHT22;5769;47.998;7.788;2023-03-02T01:51:56;18.50;60.70
11426;DHT22;5769;47.998;7.788;2023-03-02T01:54:23;18.60;60.80
11426;DHT22;5769;47.998;7.788;2023-03-02T01:56:52;18.50;60.70
11426;DHT22;5769;47.998;7.788;2023-03-02T01:59:21;18.60;60.80
11426;DHT22;5769;47.998;7.788;2023-03-02T02:01:54;18.60;60.80
11426;DHT22;5769;47.998;7.788;2023-03-02T02:04:22;18.60;60.90
11426;DHT22;5769;47.998;7.788;2023-03-02T02:06:53;18.50;60.80
11426;DHT22;5769;47.998;7.788;2023-03-02T02:09:23;18.50;60.70
11426;DHT22;5769;47.998;7.788;2023-03-02T02:11:50;18.60;60.80
11426;DHT22;5769;47.998;7.788;2023-03-02T02:14:17;18.60;60.80
11426;DHT22;5769;47.998;7.788;2023-03-02T02:16:44;18.60;60.80
11426;DHT22;5769;47.998;7.788;2023-03-02T02:19:20;18.50;60.80
11426;DHT22;5769;47.998;7.788;2023-03-02T02:21:50;18.50;60.90
11426;DHT22;5769;47.998;7.788;2023-03-02T02:24:21;18.60;60.90
11426;DHT22;5769;47.998;7.788;2023-03-02T02:26:56;18.60;60.80
11426;DHT22;5769;47.998;7.788;2023-03-02T02:29:25;18.60;60.90
11426;DHT22;5769;47.998;7.788;2023-03-02T02:31:56;18.60;60.70
11426;DHT22;5769;47.998;7.788;2023-03-02T02:34:26;18.60;60.80
11426;DHT22;5769;47.998;7.788;2023-03-02T02:36:57;18.60;60.80
11426;DHT22;5769;47.998;7.788;2023-03-02T02:39:28;18.60;60.80
11426;DHT22;5769;47.998;7.788;2023-03-02T02:41:59;18.60;60.60
11426;DHT22;5769;47.998;7.788;2023-03-02T02:44:28;18.60;60.60
11426;DHT22;5769;47.998;7.788;2023-03-02T02:46:55;18.60;60.60
11426;DHT22;5769;47.998;7.788;2023-03-02T02:49:28;18.60;60.60
11426;DHT22;5769;47.998;7.788;2023-03-02T02:51:55;18.50;60.70
11426;DHT22;5769;47.998;7.788;2023-03-02T02:54:23;18.60;60.60
11426;DHT22;5769;47.998;7.788;2023-03-02T02:56:51;18.60;60.70
11426;DHT22;5769;47.998;7.788;2023-03-02T02:59:21;18.60;60.70
11426;DHT22;5769;47.998;7.788;2023-03-02T03:01:50;18.60;60.70
11426;DHT22;5769;47.998;7.788;2023-03-02T03:04:19;18.60;60.80
11426;DHT22;5769;47.998;7.788;2023-03-02T03:06:50;18.50;60.70
11426;DHT22;5769;47.998;7.788;2023-03-02T03:09:17;18.50;60.70
11426;DHT22;5769;47.998;7.788;2023-03-02T03:11:46;18.50;60.70
11426;DHT22;5769;47.998;7.788;2023-03-02T03:14:16;18.60;60.70
11426;DHT22;5769;47.998;7.788;2023-03-02T03:16:46;18.60;60.70
11426;DHT22;5769;47.998;7.788;2023-03-02T03:19:17;18.60;60.60
11426;DHT22;5769;47.998;7.788;2023-03-02T03:21:46;18.60;60.50
11426;DHT22;5769;47.998;7.788;2023-03-02T03:24:13;18.60;60.50
11426;DHT22;5769;47.998;7.788;2023-03-02T03:26:40;18.60;60.50
11426;DHT22;5769;47.998;7.788;2023-03-02T03:29:07;18.50;60.40
11426;DHT22;5769;47.998;7.788;2023-03-02T03:31:34;18.60;60.50
11426;DHT22;5769;47.998;7.788;2023-03-02T03:34:02;18.60;60.60
11426;DHT22;5769;47.998;7.788;2023-03-02T03:36:30;18.50;60.50
11426;DHT22;5769;47.998;7.788;2023-03-02T03:38:58;18.50;60.50
11426;DHT22;5769;47.998;7.788;2023-03-02T03:41:25;18.60;60.70
11426;DHT22;5769;47.998;7.788;2023-03-02T03:43:52;18.50;60.60
11426;DHT22;5769;47.998;7.788;2023-03-02T03:46:18;18.50;60.70
11426;DHT22;5769;47.998;7.788;2023-03-02T03:48:45;18.60;60.60
11426;DHT22;5769;47.998;7.788;2023-03-02T03:51:13;18.50;60.50
11426;DHT22;5769;47.998;7.788;2023-03-02T03:53:40;18.60;60.60
11426;DHT22;5769;47.998;7.788;2023-03-02T03:56:07;18.50;60.60
11426;DHT22;5769;47.998;7.788;2023-03-02T03:58:34;18.60;60.50
11426;DHT22;5769;47.998;7.788;2023-03-02T04:01:00;18.60;60.50
11426;DHT22;5769;47.998;7.788;2023-03-02T04:03:28;18.50;60.30
11426;DHT22;5769;47.998;7.788;2023-03-02T04:05:56;18.50;60.50
11426;DHT22;5769;47.998;7.788;2023-03-02T04:08:24;18.60;60.40
11426;DHT22;5769;47.998;7.788;2023-03-02T04:10:51;18.60;60.40
11426;DHT22;5769;47.998;7.788;2023-03-02T04:13:18;18.60;60.20
11426;DHT22;5769;47.998;7.788;2023-03-02T04:15:44;18.60;60.30
11426;DHT22;5769;47.998;7.788;2023-03-02T04:18:11;18.60;60.30
11426;DHT22;5769;47.998;7.788;2023-03-02T04:20:38;18.60;60.40
11426;DHT22;5769;47.998;7.788;2023-03-02T04:23:04;18.50;60.30
11426;DHT22;5769;47.998;7.788;2023-03-02T04:25:32;18.60;60.30
11426;DHT22;5769;47.998;7.788;2023-03-02T04:27:59;18.60;60.30
11426;DHT22;5769;47.998;7.788;2023-03-02T04:30:26;18.50;60.30
11426;DHT22;5769;47.998;7.788;2023-03-02T04:32:53;18.60;60.30
11426;DHT22;5769;47.998;7.788;2023-03-02T04:35:22;18.60;60.20
11426;DHT22;5769;47.998;7.788;2023-03-02T04:37:50;18.60;60.20
11426;DHT22;5769;47.998;7.788;2023-03-02T04:40:16;18.60;60.20
11426;DHT22;5769;47.998;7.788;2023-03-02T04:42:45;18.60;60.30
11426;DHT22;5769;47.998;7.788;2023-03-02T04:45:12;18.60;60.10
11426;DHT22;5769;47.998;7.788;2023-03-02T04:47:39;18.50;60.20
11426;DHT22;5769;47.998;7.788;2023-03-02T04:50:08;18.60;60.20
11426;DHT22;5769;47.998;7.788;2023-03-02T04:52:35;18.50;60.10
11426;DHT22;5769;47.998;7.788;2023-03-02T04:55:02;18.60;60.10
11426;DHT22;5769;47.998;7.788;2023-03-02T04:57:29;18.50;60.00
11426;DHT22;5769;47.998;7.788;2023-03-02T04:59:57;18.50;60.00
11426;DHT22;5769;47.998;7.788;2023-03-02T05:02:24;18.60;60.10
11426;DHT22;5769;47.998;7.788;2023-03-02T05:04:53;18.60;60.00
11426;DHT22;5769;47.998;7.788;2023-03-02T05:07:19;18.50;60.00
11426;DHT22;5769;47.998;7.788;2023-03-02T05:09:46;18.60;60.10
11426;DHT22;5769;47.998;7.788;2023-03-02T05:12:13;18.60;60.10
11426;DHT22;5769;47.998;7.788;2023-03-02T05:14:40;18.60;60.10
11426;DHT22;5769;47.998;7.788;2023-03-02T05:17:08;18.50;60.00
11426;DHT22;5769;47.998;7.788;2023-03-02T05:19:35;18.50;60.00
11426;DHT22;5769;47.998;7.788;2023-03-02T05:22:01;18.50;60.00
11426;DHT22;5769;47.998;7.788;2023-03-02T05:24:28;18.60;60.00
11426;DHT22;5769;47.998;7.788;2023-03-02T05:26:55;18.50;59.80
11426;DHT22;5769;47.998;7.788;2023-03-02T05:29:21;18.60;59.80
11426;DHT22;5769;47.998;7.788;2023-03-02T05:31:48;18.50;59.80
11426;DHT22;5769;47.998;7.788;2023-03-02T05:34:17;18.60;59.80
11426;DHT22;5769;47.998;7.788;2023-03-02T05:36:44;18.50;59.70
11426;DHT22;5769;47.998;7.788;2023-03-02T05:39:11;18.50;59.90
11426;DHT22;5769;47.998;7.788;2023-03-02T05:41:39;18.50;59.90
11426;DHT22;5769;47.998;7.788;2023-03-02T05:44:09;18.50;59.90
11426;DHT22;5769;47.998;7.788;2023-03-02T05:46:37;18.50;59.90
11426;DHT22;5769;47.998;7.788;2023-03-02T05:49:06;18.50;59.90
11426;DHT22;5769;47.998;7.788;2023-03-02T05:51:34;18.50;60.00
11426;DHT22;5769;47.998;7.788;2023-03-02T05:54:01;18.50;59.90
11426;DHT22;5769;47.998;7.788;2023-03-02T05:56:28;18.60;60.00
11426;DHT22;5769;47.998;7.788;2023-03-02T05:58:54;18.50;59.90
11426;DHT22;5769;47.998;7.788;2023-03-02T06:01:21;18.60;59.90
11426;DHT22;5769;47.998;7.788;2023-03-02T06:03:48;18.50;59.90
11426;DHT22;5769;47.998;7.788;2023-03-02T06:06:15;18.50;59.90
11426;DHT22;5769;47.998;7.788;2023-03-02T06:08:43;18.50;59.90
11426;DHT22;5769;47.998;7.788;2023-03-02T06:11:10;18.60;59.90
11426;DHT22;5769;47.998;7.788;2023-03-02T06:13:38;18.60;59.80
11426;DHT22;5769;47.998;7.788;2023-03-02T06:16:05;18.50;59.60
11426;DHT22;5769;47.998;7.788;2023-03-02T06:18:32;18.50;59.80
11426;DHT22;5769;47.998;7.788;2023-03-02T06:20:58;18.50;59.70
11426;DHT22;5769;47.998;7.788;2023-03-02T06:23:25;18.50;59.80
11426;DHT22;5769;47.998;7.788;2023-03-02T06:25:53;18.50;59.80
11426;DHT22;5769;47.998;7.788;2023-03-02T06:28:20;18.60;59.80
11426;DHT22;5769;47.998;7.788;2023-03-02T06:30:47;18.50;59.70
11426;DHT22;5769;47.998;7.788;2023-03-02T06:33:14;18.50;59.70
11426;DHT22;5769;47.998;7.788;2023-03-02T06:35:42;18.40;59.70
11426;DHT22;5769;47.998;7.788;2023-03-02T06:38:09;18.50;59.70
11426;DHT22;5769;47.998;7.788;2023-03-02T06:40:35;18.50;59.70
11426;DHT22;5769;47.998;7.788;2023-03-02T06:43:03;18.50;59.70
11426;DHT22;5769;47.998;7.788;2023-03-02T06:45:30;18.50;59.70
11426;DHT22;5769;47.998;7.788;2023-03-02T06:47:59;18.60;59.80
11426;DHT22;5769;47.998;7.788;2023-03-02T06:50:26;18.50;59.80
11426;DHT22;5769;47.998;7.788;2023-03-02T06:52:53;18.50;59.70
11426;DHT22;5769;47.998;7.788;2023-03-02T06:55:20;18.50;59.70
11426;DHT22;5769;47.998;7.788;2023-03-02T06:57:47;18.50;59.70
11426;DHT22;5769;47.998;7.788;2023-03-02T07:00:16;18.50;59.70
11426;DHT22;5769;47.998;7.788;2023-03-02T07:02:50;18.50;59.80
11426;DHT22;5769;47.998;7.788;2023-03-02T07:05:17;18.50;59.80
11426;DHT22;5769;47.998;7.788;2023-03-02T07:07:44;18.50;59.60
11426;DHT22;5769;47.998;7.788;2023-03-02T07:10:11;18.50;59.50
11426;DHT22;5769;47.998;7.788;2023-03-02T07:12:38;18.50;59.60
11426;DHT22;5769;47.998;7.788;2023-03-02T07:15:06;18.50;59.60
11426;DHT22;5769;47.998;7.788;2023-03-02T07:17:37;18.50;59.60
11426;DHT22;5769;47.998;7.788;2023-03-02T07:20:04;18.50;59.60
11426;DHT22;5769;47.998;7.788;2023-03-02T07:22:31;18.50;60.20
11426;DHT22;5769;47.998;7.788;2023-03-02T07:24:57;18.50;59.60
11426;DHT22;5769;47.998;7.788;2023-03-02T07:27:24;18.50;59.70
11426;DHT22;5769;47.998;7.788;2023-03-02T07:29:51;18.50;59.70
11426;DHT22;5769;47.998;7.788;2023-03-02T07:32:17;18.50;59.60
11426;DHT22;5769;47.998;7.788;2023-03-02T07:34:45;18.50;59.70
11426;DHT22;5769;47.998;7.788;2023-03-02T07:37:12;18.50;59.70
11426;DHT22;5769;47.998;7.788;2023-03-02T07:39:39;18.50;59.70
11426;DHT22;5769;47.998;7.788;2023-03-02T07:42:05;18.50;59.70
11426;DHT22;5769;47.998;7.788;2023-03-02T07:44:33;18.50;59.70
11426;DHT22;5769;47.998;7.788;2023-03-02T07:47:00;18.40;59.70
11426;DHT22;5769;47.998;7.788;2023-03-02T07:49:27;18.50;59.30
11426;DHT22;5769;47.998;7.788;2023-03-02T07:51:55;18.40;59.10
11426;DHT22;5769;47.998;7.788;2023-03-02T07:54:21;18.40;59.20
11426;DHT22;5769;47.998;7.788;2023-03-02T07:56:50;18.40;59.10
11426;DHT22;5769;47.998;7.788;2023-03-02T07:59:17;18.50;59.20
11426;DHT22;5769;47.998;7.788;2023-03-02T08:01:44;18.50;59.30
11426;DHT22;5769;47.998;7.788;2023-03-02T08:04:10;18.40;59.30
11426;DHT22;5769;47.998;7.788;2023-03-02T08:06:37;18.50;59.90
11426;DHT22;5769;47.998;7.788;2023-03-02T08:09:05;18.50;59.00
11426;DHT22;5769;47.998;7.788;2023-03-02T08:11:32;18.50;58.90
11426;DHT22;5769;47.998;7.788;2023-03-02T08:13:58;18.50;58.60
11426;DHT22;5769;47.998;7.788;2023-03-02T08:16:25;18.60;58.90
11426;DHT22;5769;47.998;7.788;2023-03-02T08:18:52;18.50;58.80
11426;DHT22;5769;47.998;7.788;2023-03-02T08:21:21;18.60;59.00
11426;DHT22;5769;47.998;7.788;2023-03-02T08:23:49;18.60;59.10
11426;DHT22;5769;47.998;7.788;2023-03-02T08:26:18;18.70;59.20
11426;DHT22;5769;47.998;7.788;2023-03-02T08:28:45;18.70;59.10
11426;DHT22;5769;47.998;7.788;2023-03-02T08:31:13;18.90;59.00
11426;DHT22;5769;47.998;7.788;2023-03-02T08:33:39;18.90;59.00
11426;DHT22;5769;47.998;7.788;2023-03-02T08:36:10;19.00;58.90
11426;DHT22;5769;47.998;7.788;2023-03-02T08:38:36;19.10;58.80
11426;DHT22;5769;47.998;7.788;2023-03-02T08:41:04;19.10;58.70
11426;DHT22;5769;47.998;7.788;2023-03-02T08:43:33;19.20;58.70
11426;DHT22;5769;47.998;7.788;2023-03-02T08:46:00;19.30;58.50
11426;DHT22;5769;47.998;7.788;2023-03-02T08:48:28;19.30;58.50
11426;DHT22;5769;47.998;7.788;2023-03-02T08:50:55;19.40;58.70
11426;DHT22;5769;47.998;7.788;2023-03-02T08:53:22;19.30;58.70
11426;DHT22;5769;47.998;7.788;2023-03-02T08:55:49;19.40;58.50
11426;DHT22;5769;47.998;7.788;2023-03-02T08:58:16;19.40;58.60
11426;DHT22;5769;47.998;7.788;2023-03-02T09:00:44;19.50;58.60
11426;DHT22;5769;47.998;7.788;2023-03-02T09:03:11;19.60;58.60
11426;DHT22;5769;47.998;7.788;2023-03-02T09:05:38;19.60;58.50
11426;DHT22;5769;47.998;7.788;2023-03-02T09:08:05;19.70;56.60
11426;DHT22;5769;47.998;7.788;2023-03-02T09:10:33;19.70;56.50
11426;DHT22;5769;47.998;7.788;2023-03-02T09:13:00;19.80;56.40
11426;DHT22;5769;47.998;7.788;2023-03-02T09:15:27;19.80;56.30
11426;DHT22;5769;47.998;7.788;2023-03-02T09:17:55;19.80;56.40
11426;DHT22;5769;47.998;7.788;2023-03-02T09:20:22;19.80;56.40
11426;DHT22;5769;47.998;7.788;2023-03-02T09:22:48;19.90;56.40
11426;DHT22;5769;47.998;7.788;2023-03-02T09:25:16;19.90;56.60
11426;DHT22;5769;47.998;7.788;2023-03-02T09:27:44;19.90;56.80
11426;DHT22;5769;47.998;7.788;2023-03-02T09:30:12;19.90;57.60
11426;DHT22;5769;47.998;7.788;2023-03-02T09:32:39;20.00;59.00
11426;DHT22;5769;47.998;7.788;2023-03-02T09:35:07;20.00;60.90
11426;DHT22;5769;47.998;7.788;2023-03-02T09:37:34;20.10;62.90
11426;DHT22;5769;47.998;7.788;2023-03-02T09:40:04;20.10;62.20
11426;DHT22;5769;47.998;7.788;2023-03-02T09:45:38;20.20;62.70
11426;DHT22;5769;47.998;7.788;2023-03-02T09:48:13;20.20;62.30
11426;DHT22;5769;47.998;7.788;2023-03-02T09:50:51;20.10;62.10
11426;DHT22;5769;47.998;7.788;2023-03-02T09:53:30;20.10;62.30
11426;DHT22;5769;47.998;7.788;2023-03-02T09:56:00;20.20;62.40
11426;DHT22;5769;47.998;7.788;2023-03-02T09:58:30;20.20;62.70
11426;DHT22;5769;47.998;7.788;2023-03-02T10:01:02;20.20;63.20
11426;DHT22;5769;47.998;7.788;2023-03-02T10:03:35;20.20;63.40
11426;DHT22;5769;47.998;7.788;2023-03-02T10:06:05;20.20;65.20
11426;DHT22;5769;47.998;7.788;2023-03-02T10:08:35;20.10;63.80
11426;DHT22;5769;47.998;7.788;2023-03-02T10:11:10;20.20;65.20
11426;DHT22;5769;47.998;7.788;2023-03-02T10:13:40;20.10;60.10
11426;DHT22;5769;47.998;7.788;2023-03-02T10:16:18;20.20;60.40
11426;DHT22;5769;47.998;7.788;2023-03-02T10:18:50;20.10;60.10
11426;DHT22;5769;47.998;7.788;2023-03-02T10:21:25;20.10;60.20
11426;DHT22;5769;47.998;7.788;2023-03-02T10:23:57;20.20;60.40
11426;DHT22;5769;47.998;7.788;2023-03-02T10:26:38;20.20;60.00
11426;DHT22;5769;47.998;7.788;2023-03-02T10:29:25;20.30;60.10
11426;DHT22;5769;47.998;7.788;2023-03-02T10:31:57;20.10;60.10
11426;DHT22;5769;47.998;7.788;2023-03-02T10:34:26;20.10;60.20
11426;DHT22;5769;47.998;7.788;2023-03-02T10:36:56;20.10;60.10
11426;DHT22;5769;47.998;7.788;2023-03-02T10:39:23;20.10;60.20
11426;DHT22;5769;47.998;7.788;2023-03-02T10:41:52;20.10;60.50
11426;DHT22;5769;47.998;7.788;2023-03-02T10:44:21;20.00;60.40
11426;DHT22;5769;47.998;7.788;2023-03-02T10:46:49;20.00;60.40
11426;DHT22;5769;47.998;7.788;2023-03-02T10:49:28;20.00;60.30
11426;DHT22;5769;47.998;7.788;2023-03-02T10:52:02;20.00;60.50
11426;DHT22;5769;47.998;7.788;2023-03-02T10:54:30;20.00;60.90
11426;DHT22;5769;47.998;7.788;2023-03-02T10:56:59;20.10;60.80
11426;DHT22;5769;47.998;7.788;2023-03-02T10:59:40;20.10;60.90
11426;DHT22;5769;47.998;7.788;2023-03-02T11:02:17;20.00;60.80
11426;DHT22;5769;47.998;7.788;2023-03-02T11:04:47;20.00;60.90
11426;DHT22;5769;47.998;7.788;2023-03-02T11:07:17;20.00;60.90
11426;DHT22;5769;47.998;7.788;2023-03-02T11:09:58;20.00;60.90
11426;DHT22;5769;47.998;7.788;2023-03-02T11:12:26;20.00;61.10
11426;DHT22;5769;47.998;7.788;2023-03-02T11:15:10;20.00;61.10
11426;DHT22;5769;47.998;7.788;2023-03-02T11:17:39;19.90;61.10
11426;DHT22;5769;47.998;7.788;2023-03-02T11:20:13;19.80;60.80
11426;DHT22;5769;47.998;7.788;2023-03-02T11:22:48;19.90;60.70
11426;DHT22;5769;47.998;7.788;2023-03-02T11:25:22;19.80;60.40
11426;DHT22;5769;47.998;7.788;2023-03-02T11:27:56;19.70;60.50
11426;DHT22;5769;47.998;7.788;2023-03-02T11:30:24;19.70;60.30
11426;DHT22;5769;47.998;7.788;2023-03-02T11:32:58;19.80;60.20
11426;DHT22;5769;47.998;7.788;2023-03-02T11:35:31;19.70;60.30
11426;DHT22;5769;47.998;7.788;2023-03-02T11:38:03;19.70;59.90
11426;DHT22;5769;47.998;7.788;2023-03-02T11:40:42;19.70;59.60
11426;DHT22;5769;47.998;7.788;2023-03-02T11:43:11;19.70;59.60
11426;DHT22;5769;47.998;7.788;2023-03-02T11:45:42;19.70;59.20
11426;DHT22;5769;47.998;7.788;2023-03-02T11:48:16;19.60;58.80
11426;DHT22;5769;47.998;7.788;2023-03-02T11:50:52;19.70;58.80
11426;DHT22;5769;47.998;7.788;2023-03-02T11:53:22;19.70;59.00
11426;DHT22;5769;47.998;7.788;2023-03-02T11:55:51;19.70;59.00
11426;DHT22;5769;47.998;7.788;2023-03-02T11:58:20;19.70;59.20
11426;DHT22;5769;47.998;7.788;2023-03-02T12:00:48;19.60;59.10
11426;DHT22;5769;47.998;7.788;2023-03-02T12:03:20;19.60;59.10
11426;DHT22;5769;47.998;7.788;2023-03-02T12:05:59;19.60;59.30
11426;DHT22;5769;47.998;7.788;2023-03-02T12:08:34;19.70;59.40
11426;DHT22;5769;47.998;7.788;2023-03-02T12:11:03;19.70;59.50
11426;DHT22;5769;47.998;7.788;2023-03-02T12:13:32;19.70;59.50
11426;DHT22;5769;47.998;7.788;2023-03-02T12:15:59;19.70;59.70
11426;DHT22;5769;47.998;7.788;2023-03-02T12:18:41;19.70;59.70
11426;DHT22;5769;47.998;7.788;2023-03-02T12:21:11;19.70;59.70
11426;DHT22;5769;47.998;7.788;2023-03-02T12:23:54;19.70;59.70
11426;DHT22;5769;47.998;7.788;2023-03-02T12:26:29;19.70;59.70
11426;DHT22;5769;47.998;7.788;2023-03-02T12:29:00;19.70;59.90
11426;DHT22;5769;47.998;7.788;2023-03-02T12:31:42;19.70;59.90
11426;DHT22;5769;47.998;7.788;2023-03-02T12:34:26;19.70;60.00
11426;DHT22;5769;47.998;7.788;2023-03-02T12:36:58;19.70;60.00
11426;DHT22;5769;47.998;7.788;2023-03-02T12:39:38;19.70;60.10
11426;DHT22;5769;47.998;7.788;2023-03-02T12:45:19;19.70;60.20
11426;DHT22;5769;47.998;7.788;2023-03-02T12:47:50;19.70;60.20
11426;DHT22;5769;47.998;7.788;2023-03-02T12:50:24;19.70;60.30
11426;DHT22;5769;47.998;7.788;2023-03-02T12:52:59;19.70;60.40
11426;DHT22;5769;47.998;7.788;2023-03-02T12:55:27;19.70;60.60
11426;DHT22;5769;47.998;7.788;2023-03-02T12:57:56;19.70;61.30
11426;DHT22;5769;47.998;7.788;2023-03-02T13:00:25;19.70;60.70
11426;DHT22;5769;47.998;7.788;2023-03-02T13:02:54;19.70;60.60
11426;DHT22;5769;47.998;7.788;2023-03-02T13:05:22;19.70;60.70
11426;DHT22;5769;47.998;7.788;2023-03-02T13:07:55;19.70;60.80
11426;DHT22;5769;47.998;7.788;2023-03-02T13:10:29;19.70;61.10
11426;DHT22;5769;47.998;7.788;2023-03-02T13:12:57;19.70;61.10
11426;DHT22;5769;47.998;7.788;2023-03-02T13:15:24;19.60;61.00
11426;DHT22;5769;47.998;7.788;2023-03-02T13:17:54;19.60;61.20
11426;DHT22;5769;47.998;7.788;2023-03-02T13:20:24;19.60;61.00
11426;DHT22;5769;47.998;7.788;2023-03-02T13:22:51;19.60;60.90
11426;DHT22;5769;47.998;7.788;2023-03-02T13:25:22;19.50;60.70
11426;DHT22;5769;47.998;7.788;2023-03-02T13:27:55;19.60;60.80
11426;DHT22;5769;47.998;7.788;2023-03-02T13:30:23;19.50;60.60
11426;DHT22;5769;47.998;7.788;2023-03-02T13:32:50;19.50;60.70
11426;DHT22;5769;47.998;7.788;2023-03-02T13:35:22;19.50;60.70
11426;DHT22;5769;47.998;7.788;2023-03-02T13:37:55;19.50;60.70
11426;DHT22;5769;47.998;7.788;2023-03-02T13:40:40;19.40;60.60
11426;DHT22;5769;47.998;7.788;2023-03-02T13:43:36;19.50;60.70
11426;DHT22;5769;47.998;7.788;2023-03-02T13:46:05;19.40;60.50
11426;DHT22;5769;47.998;7.788;2023-03-02T13:48:32;19.40;60.60
11426;DHT22;5769;47.998;7.788;2023-03-02T13:51:00;19.40;60.50
11426;DHT22;5769;47.998;7.788;2023-03-02T13:53:30;19.40;60.40
11426;DHT22;5769;47.998;7.788;2023-03-02T13:55:59;19.40;60.30
11426;DHT22;5769;47.998;7.788;2023-03-02T13:58:29;19.40;60.40
11426;DHT22;5769;47.998;7.788;2023-03-02T14:00:57;19.40;60.50
11426;DHT22;5769;47.998;7.788;2023-03-02T14:03:26;19.40;60.40
11426;DHT22;5769;47.998;7.788;2023-03-02T14:05:53;19.40;60.40
11426;DHT22;5769;47.998;7.788;2023-03-02T14:08:20;19.40;60.40
11426;DHT22;5769;47.998;7.788;2023-03-02T14:10:48;19.40;60.10
11426;DHT22;5769;47.998;7.788;2023-03-02T14:13:17;19.40;59.50
11426;DHT22;5769;47.998;7.788;2023-03-02T14:15:49;19.50;59.60
11426;DHT22;5769;47.998;7.788;2023-03-02T14:18:28;19.50;59.50
11426;DHT22;5769;47.998;7.788;2023-03-02T14:20:57;19.50;59.50
11426;DHT22;5769;47.998;7.788;2023-03-02T14:23:24;19.50;59.30
11426;DHT22;5769;47.998;7.788;2023-03-02T14:25:51;19.50;59.40
11426;DHT22;5769;47.998;7.788;2023-03-02T14:28:24;19.60;59.50
11426;DHT22;5769;47.998;7.788;2023-03-02T14:30:54;19.50;59.50
11426;DHT22;5769;47.998;7.788;2023-03-02T14:33:22;19.60;59.60
11426;DHT22;5769;47.998;7.788;2023-03-02T14:35:51;19.50;59.50
11426;DHT22;5769;47.998;7.788;2023-03-02T14:38:18;19.60;59.50
11426;DHT22;5769;47.998;7.788;2023-03-02T14:40:46;19.60;59.50
11426;DHT22;5769;47.998;7.788;2023-03-02T14:43:12;19.60;59.50
11426;DHT22;5769;47.998;7.788;2023-03-02T14:45:39;19.60;59.50
11426;DHT22;5769;47.998;7.788;2023-03-02T14:48:07;19.60;59.60
11426;DHT22;5769;47.998;7.788;2023-03-02T14:50:37;19.60;59.90
11426;DHT22;5769;47.998;7.788;2023-03-02T14:53:06;19.60;60.00
11426;DHT22;5769;47.998;7.788;2023-03-02T14:55:36;19.60;60.10
11426;DHT22;5769;47.998;7.788;2023-03-02T14:58:11;19.70;60.30
11426;DHT22;5769;47.998;7.788;2023-03-02T15:00:38;19.60;60.40
11426;DHT22;5769;47.998;7.788;2023-03-02T15:03:11;19.70;60.30
11426;DHT22;5769;47.998;7.788;2023-03-02T15:05:39;19.70;60.20
11426;DHT22;5769;47.998;7.788;2023-03-02T15:08:05;19.70;60.30
11426;DHT22;5769;47.998;7.788;2023-03-02T15:10:34;19.70;60.40
11426;DHT22;5769;47.998;7.788;2023-03-02T15:13:01;19.70;60.90
11426;DHT22;5769;47.998;7.788;2023-03-02T15:15:27;19.70;60.60
11426;DHT22;5769;47.998;7.788;2023-03-02T15:17:54;19.70;60.70
11426;DHT22;5769;47.998;7.788;2023-03-02T15:20:22;19.70;60.70
11426;DHT22;5769;47.998;7.788;2023-03-02T15:22:49;19.70;60.90
11426;DHT22;5769;47.998;7.788;2023-03-02T15:25:15;19.70;60.70
11426;DHT22;5769;47.998;7.788;2023-03-02T15:27:42;19.70;60.70
11426;DHT22;5769;47.998;7.788;2023-03-02T15:30:10;19.70;60.80
11426;DHT22;5769;47.998;7.788;2023-03-02T15:32:37;19.70;60.40
11426;DHT22;5769;47.998;7.788;2023-03-02T15:35:04;19.70;60.40
11426;DHT22;5769;47.998;7.788;2023-03-02T15:37:32;19.80;60.10
11426;DHT22;5769;47.998;7.788;2023-03-02T15:39:59;19.70;60.00
11426;DHT22;5769;47.998;7.788;2023-03-02T15:42:26;19.70;60.10
11426;DHT22;5769;47.998;7.788;2023-03-02T15:44:52;19.70;60.00
11426;DHT22;5769;47.998;7.788;2023-03-02T15:47:19;19.80;60.80
11426;DHT22;5769;47.998;7.788;2023-03-02T15:49:46;19.70;60.00
11426;DHT22;5769;47.998;7.788;2023-03-02T15:52:14;19.70;59.70
11426;DHT22;5769;47.998;7.788;2023-03-02T15:54:42;19.70;59.50
11426;DHT22;5769;47.998;7.788;2023-03-02T15:57:08;19.70;59.40
11426;DHT22;5769;47.998;7.788;2023-03-02T15:59:36;19.70;59.30
11426;DHT22;5769;47.998;7.788;2023-03-02T16:02:02;19.70;59.30